sensor_id;sensor_type;location;lat;lon;timestamp;P1;durP1;ratioP1;P2;durP2;ratioP2
19024;SDS011;9645;51.448;6.260;2023-03-14T00:00:27;3.17;;;2.38;;
19024;SDS011;9645;51.448;6.260;2023-03-14T00:02:54;9.40;;;2.08;;
19024;SDS011;9645;51.448;6.260;2023-03-14T00:05:21;4.03;;;2.03;;
19024;SDS011;9645;51.448;6.260;2023-03-14T00:07:47;5.78;;;2.00;;
19024;SDS011;9645;51.448;6.260;2023-03-14T00:10:15;6.47;;;2.05;;
19024;SDS011;9645;51.448;6.260;2023-03-14T00:12:42;7.25;;;2.35;;
19024;SDS011;9645;51.448;6.260;2023-03-14T00:15:11;9.30;;;2.22;;
19024;SDS011;9645;51.448;6.260;2023-03-14T00:17:39;7.50;;;2.00;;
19024;SDS011;9645;51.448;6.260;2023-03-14T00:20:09;10.90;;;2.10;;
19024;SDS011;9645;51.448;6.260;2023-03-14T00:22:37;8.70;;;1.95;;
19024;SDS011;9645;51.448;6.260;2023-03-14T00:25:05;6.72;;;1.65;;
19024;SDS011;9645;51.448;6.260;2023-03-14T00:27:33;7.60;;;1.67;;
19024;SDS011;9645;51.448;6.260;2023-03-14T00:30:01;5.28;;;2.17;;
19024;SDS011;9645;51.448;6.260;2023-03-14T00:32:32;5.00;;;2.45;;
19024;SDS011;9645;51.448;6.260;2023-03-14T00:35:03;5.57;;;2.30;;
19024;SDS011;9645;51.448;6.260;2023-03-14T00:37:30;7.32;;;1.70;;
19024;SDS011;9645;51.448;6.260;2023-03-14T00:39:58;3.88;;;1.73;;
19024;SDS011;9645;51.448;6.260;2023-03-14T00:42:24;13.85;;;1.75;;
19024;SDS011;9645;51.448;6.260;2023-03-14T00:44:52;3.60;;;1.80;;
19024;SDS011;9645;51.448;6.260;2023-03-14T00:47:19;10.52;;;2.67;;
19024;SDS011;9645;51.448;6.260;2023-03-14T00:49:47;10.85;;;2.17;;
19024;SDS011;9645;51.448;6.260;2023-03-14T00:52:14;3.67;;;1.70;;
19024;SDS011;9645;51.448;6.260;2023-03-14T00:54:41;5.93;;;1.80;;
19024;SDS011;9645;51.448;6.260;2023-03-14T00:57:08;9.43;;;1.55;;
19024;SDS011;9645;51.448;6.260;2023-03-14T00:59:35;3.97;;;1.80;;
19024;SDS011;9645;51.448;6.260;2023-03-14T01:02:02;9.32;;;1.63;;
19024;SDS011;9645;51.448;6.260;2023-03-14T01:04:29;11.70;;;1.88;;
19024;SDS011;9645;51.448;6.260;2023-03-14T01:06:58;7.88;;;1.38;;
19024;SDS011;9645;51.448;6.260;2023-03-14T01:09:25;5.80;;;1.38;;
19024;SDS011;9645;51.448;6.260;2023-03-14T01:11:52;7.05;;;1.20;;
19024;SDS011;9645;51.448;6.260;2023-03-14T01:14:19;11.85;;;2.13;;
19024;SDS011;9645;51.448;6.260;2023-03-14T01:16:46;6.82;;;1.35;;
19024;SDS011;9645;51.448;6.260;2023-03-14T01:19:13;2.65;;;1.13;;
19024;SDS011;9645;51.448;6.260;2023-03-14T01:21:40;7.60;;;1.38;;
19024;SDS011;9645;51.448;6.260;2023-03-14T01:24:09;12.25;;;1.15;;
19024;SDS011;9645;51.448;6.260;2023-03-14T01:26:37;6.85;;;1.45;;
19024;SDS011;9645;51.448;6.260;2023-03-14T01:29:04;12.07;;;2.00;;
19024;SDS011;9645;51.448;6.260;2023-03-14T01:31:31;2.25;;;1.40;;
19024;SDS011;9645;51.448;6.260;2023-03-14T01:33:58;3.83;;;1.20;;
19024;SDS011;9645;51.448;6.260;2023-03-14T01:36:25;6.60;;;1.20;;
19024;SDS011;9645;51.448;6.260;2023-03-14T01:38:52;5.70;;;1.17;;
19024;SDS011;9645;51.448;6.260;2023-03-14T01:41:21;8.30;;;1.00;;
19024;SDS011;9645;51.448;6.260;2023-03-14T01:43:49;2.50;;;1.00;;
19024;SDS011;9645;51.448;6.260;2023-03-14T01:46:30;4.38;;;1.30;;
19024;SDS011;9645;51.448;6.260;2023-03-14T01:49:03;8.10;;;0.93;;
19024;SDS011;9645;51.448;6.260;2023-03-14T01:51:36;10.45;;;1.00;;
19024;SDS011;9645;51.448;6.260;2023-03-14T01:54:10;6.22;;;1.45;;
19024;SDS011;9645;51.448;6.260;2023-03-14T01:56:43;1.27;;;0.88;;
19024;SDS011;9645;51.448;6.260;2023-03-14T01:59:13;5.70;;;1.45;;
19024;SDS011;9645;51.448;6.260;2023-03-14T02:01:41;4.40;;;1.10;;
19024;SDS011;9645;51.448;6.260;2023-03-14T02:04:10;5.30;;;1.20;;
19024;SDS011;9645;51.448;6.260;2023-03-14T02:06:41;7.63;;;1.50;;
19024;SDS011;9645;51.448;6.260;2023-03-14T02:09:13;3.75;;;1.02;;
19024;SDS011;9645;51.448;6.260;2023-03-14T02:11:41;2.10;;;1.17;;
19024;SDS011;9645;51.448;6.260;2023-03-14T02:14:10;7.63;;;0.93;;
19024;SDS011;9645;51.448;6.260;2023-03-14T02:16:43;12.07;;;1.75;;
19024;SDS011;9645;51.448;6.260;2023-03-14T02:19:10;4.65;;;1.30;;
19024;SDS011;9645;51.448;6.260;2023-03-14T02:21:42;10.77;;;1.42;;
19024;SDS011;9645;51.448;6.260;2023-03-14T02:24:17;3.35;;;1.13;;
19024;SDS011;9645;51.448;6.260;2023-03-14T02:27:07;5.05;;;1.20;;
19024;SDS011;9645;51.448;6.260;2023-03-14T02:29:36;7.93;;;1.30;;
19024;SDS011;9645;51.448;6.260;2023-03-14T02:32:10;6.82;;;1.50;;
19024;SDS011;9645;51.448;6.260;2023-03-14T02:34:37;13.82;;;1.40;;
19024;SDS011;9645;51.448;6.260;2023-03-14T02:37:06;7.95;;;1.60;;
19024;SDS011;9645;51.448;6.260;2023-03-14T02:39:35;7.63;;;1.10;;
19024;SDS011;9645;51.448;6.260;2023-03-14T02:42:07;4.20;;;1.40;;
19024;SDS011;9645;51.448;6.260;2023-03-14T02:44:34;16.23;;;1.67;;
19024;SDS011;9645;51.448;6.260;2023-03-14T02:47:02;6.78;;;1.45;;
19024;SDS011;9645;51.448;6.260;2023-03-14T02:49:30;4.07;;;1.10;;
19024;SDS011;9645;51.448;6.260;2023-03-14T02:51:59;5.15;;;1.40;;
19024;SDS011;9645;51.448;6.260;2023-03-14T02:54:26;7.38;;;1.90;;
19024;SDS011;9645;51.448;6.260;2023-03-14T02:56:53;6.38;;;1.30;;
19024;SDS011;9645;51.448;6.260;2023-03-14T02:59:21;9.00;;;1.77;;
19024;SDS011;9645;51.448;6.260;2023-03-14T03:01:48;9.38;;;1.63;;
19024;SDS011;9645;51.448;6.260;2023-03-14T03:04:15;11.00;;;1.75;;
19024;SDS011;9645;51.448;6.260;2023-03-14T03:06:42;7.10;;;2.58;;
19024;SDS011;9645;51.448;6.260;2023-03-14T03:09:09;10.50;;;2.00;;
19024;SDS011;9645;51.448;6.260;2023-03-14T03:11:36;10.73;;;1.73;;
19024;SDS011;9645;51.448;6.260;2023-03-14T03:14:03;16.15;;;1.48;;
19024;SDS011;9645;51.448;6.260;2023-03-14T03:16:31;16.67;;;1.70;;
19024;SDS011;9645;51.448;6.260;2023-03-14T03:18:58;4.18;;;1.33;;
19024;SDS011;9645;51.448;6.260;2023-03-14T03:21:25;6.45;;;1.30;;
19024;SDS011;9645;51.448;6.260;2023-03-14T03:23:52;6.38;;;1.35;;
19024;SDS011;9645;51.448;6.260;2023-03-14T03:26:19;9.55;;;1.60;;
19024;SDS011;9645;51.448;6.260;2023-03-14T03:28:46;5.97;;;1.15;;
19024;SDS011;9645;51.448;6.260;2023-03-14T03:31:13;4.82;;;1.30;;
19024;SDS011;9645;51.448;6.260;2023-03-14T03:33:42;5.28;;;1.23;;
19024;SDS011;9645;51.448;6.260;2023-03-14T03:36:09;10.18;;;1.50;;
19024;SDS011;9645;51.448;6.260;2023-03-14T03:38:36;3.00;;;1.20;;
19024;SDS011;9645;51.448;6.260;2023-03-14T03:41:04;7.03;;;1.35;;
19024;SDS011;9645;51.448;6.260;2023-03-14T03:43:32;3.08;;;1.17;;
19024;SDS011;9645;51.448;6.260;2023-03-14T03:46:02;7.03;;;1.20;;
19024;SDS011;9645;51.448;6.260;2023-03-14T03:48:29;8.40;;;2.00;;
19024;SDS011;9645;51.448;6.260;2023-03-14T03:50:58;4.90;;;1.00;;
19024;SDS011;9645;51.448;6.260;2023-03-14T03:53:24;8.68;;;1.55;;
19024;SDS011;9645;51.448;6.260;2023-03-14T03:55:51;5.40;;;1.58;;
19024;SDS011;9645;51.448;6.260;2023-03-14T03:58:18;5.97;;;1.10;;
19024;SDS011;9645;51.448;6.260;2023-03-14T04:00:45;13.50;;;1.33;;
19024;SDS011;9645;51.448;6.260;2023-03-14T04:03:12;7.53;;;1.27;;
19024;SDS011;9645;51.448;6.260;2023-03-14T04:05:39;2.08;;;1.08;;
19024;SDS011;9645;51.448;6.260;2023-03-14T04:08:07;8.52;;;1.23;;
19024;SDS011;9645;51.448;6.260;2023-03-14T04:10:34;6.85;;;1.23;;
19024;SDS011;9645;51.448;6.260;2023-03-14T04:13:02;9.05;;;1.70;;
19024;SDS011;9645;51.448;6.260;2023-03-14T04:15:29;2.75;;;1.00;;
19024;SDS011;9645;51.448;6.260;2023-03-14T04:17:56;3.88;;;0.93;;
19024;SDS011;9645;51.448;6.260;2023-03-14T04:20:23;7.68;;;1.38;;
19024;SDS011;9645;51.448;6.260;2023-03-14T04:22:51;7.60;;;1.25;;
19024;SDS011;9645;51.448;6.260;2023-03-14T04:25:19;6.20;;;1.00;;
19024;SDS011;9645;51.448;6.260;2023-03-14T04:27:46;8.35;;;1.58;;
19024;SDS011;9645;51.448;6.260;2023-03-14T04:30:13;5.97;;;1.05;;
19024;SDS011;9645;51.448;6.260;2023-03-14T04:32:40;6.53;;;1.25;;
19024;SDS011;9645;51.448;6.260;2023-03-14T04:35:07;1.42;;;0.60;;
19024;SDS011;9645;51.448;6.260;2023-03-14T04:37:34;2.15;;;0.60;;
19024;SDS011;9645;51.448;6.260;2023-03-14T04:40:01;3.55;;;0.90;;
19024;SDS011;9645;51.448;6.260;2023-03-14T04:42:32;2.35;;;0.70;;
19024;SDS011;9645;51.448;6.260;2023-03-14T04:44:59;3.90;;;0.70;;
19024;SDS011;9645;51.448;6.260;2023-03-14T04:47:26;2.17;;;0.70;;
19024;SDS011;9645;51.448;6.260;2023-03-14T04:49:53;3.05;;;0.80;;
19024;SDS011;9645;51.448;6.260;2023-03-14T04:52:20;1.88;;;0.50;;
19024;SDS011;9645;51.448;6.260;2023-03-14T04:54:47;0.55;;;0.38;;
19024;SDS011;9645;51.448;6.260;2023-03-14T04:57:14;1.13;;;0.50;;
19024;SDS011;9645;51.448;6.260;2023-03-14T04:59:42;0.98;;;0.55;;
19024;SDS011;9645;51.448;6.260;2023-03-14T05:02:09;1.23;;;0.45;;
19024;SDS011;9645;51.448;6.260;2023-03-14T05:04:36;1.85;;;0.68;;
19024;SDS011;9645;51.448;6.260;2023-03-14T05:07:03;2.38;;;0.95;;
19024;SDS011;9645;51.448;6.260;2023-03-14T05:09:30;2.88;;;0.73;;
19024;SDS011;9645;51.448;6.260;2023-03-14T05:11:57;4.32;;;1.05;;
19024;SDS011;9645;51.448;6.260;2023-03-14T05:14:24;2.15;;;0.82;;
19024;SDS011;9645;51.448;6.260;2023-03-14T05:16:52;4.32;;;1.20;;
19024;SDS011;9645;51.448;6.260;2023-03-14T05:19:19;1.15;;;0.90;;
19024;SDS011;9645;51.448;6.260;2023-03-14T05:21:46;1.83;;;1.10;;
19024;SDS011;9645;51.448;6.260;2023-03-14T05:24:13;2.25;;;0.90;;
19024;SDS011;9645;51.448;6.260;2023-03-14T05:26:40;2.67;;;1.40;;
19024;SDS011;9645;51.448;6.260;2023-03-14T05:29:07;1.50;;;1.00;;
19024;SDS011;9645;51.448;6.260;2023-03-14T05:31:34;6.43;;;2.00;;
19024;SDS011;9645;51.448;6.260;2023-03-14T05:34:02;2.30;;;1.30;;
19024;SDS011;9645;51.448;6.260;2023-03-14T05:36:29;1.10;;;1.00;;
19024;SDS011;9645;51.448;6.260;2023-03-14T05:38:56;2.63;;;1.60;;
19024;SDS011;9645;51.448;6.260;2023-03-14T05:41:23;6.95;;;1.38;;
19024;SDS011;9645;51.448;6.260;2023-03-14T05:43:50;3.47;;;1.40;;
19024;SDS011;9645;51.448;6.260;2023-03-14T05:46:17;2.50;;;1.50;;
19024;SDS011;9645;51.448;6.260;2023-03-14T05:48:44;4.95;;;1.95;;
19024;SDS011;9645;51.448;6.260;2023-03-14T05:51:12;6.95;;;2.55;;
19024;SDS011;9645;51.448;6.260;2023-03-14T05:53:39;6.57;;;3.45;;
19024;SDS011;9645;51.448;6.260;2023-03-14T05:56:07;5.13;;;2.13;;
19024;SDS011;9645;51.448;6.260;2023-03-14T05:58:34;8.27;;;2.28;;
19024;SDS011;9645;51.448;6.260;2023-03-14T06:01:02;8.05;;;2.53;;
19024;SDS011;9645;51.448;6.260;2023-03-14T06:03:29;7.07;;;2.42;;
19024;SDS011;9645;51.448;6.260;2023-03-14T06:05:56;14.23;;;2.42;;
19024;SDS011;9645;51.448;6.260;2023-03-14T06:08:25;2.53;;;1.70;;
19024;SDS011;9645;51.448;6.260;2023-03-14T06:10:53;4.95;;;2.22;;
19024;SDS011;9645;51.448;6.260;2023-03-14T06:13:20;6.53;;;2.80;;
19024;SDS011;9645;51.448;6.260;2023-03-14T06:15:47;11.15;;;2.55;;
19024;SDS011;9645;51.448;6.260;2023-03-14T06:18:14;10.65;;;2.80;;
19024;SDS011;9645;51.448;6.260;2023-03-14T06:20:41;4.63;;;2.65;;
19024;SDS011;9645;51.448;6.260;2023-03-14T06:23:08;4.20;;;2.35;;
19024;SDS011;9645;51.448;6.260;2023-03-14T06:25:36;10.85;;;2.60;;
19024;SDS011;9645;51.448;6.260;2023-03-14T06:28:03;7.38;;;2.30;;
19024;SDS011;9645;51.448;6.260;2023-03-14T06:30:30;3.60;;;2.25;;
19024;SDS011;9645;51.448;6.260;2023-03-14T06:32:57;6.30;;;2.58;;
19024;SDS011;9645;51.448;6.260;2023-03-14T06:35:24;2.42;;;2.00;;
19024;SDS011;9645;51.448;6.260;2023-03-14T06:37:51;4.03;;;2.35;;
19024;SDS011;9645;51.448;6.260;2023-03-14T06:40:18;3.65;;;2.13;;
19024;SDS011;9645;51.448;6.260;2023-03-14T06:42:47;6.40;;;2.20;;
19024;SDS011;9645;51.448;6.260;2023-03-14T06:45:14;2.85;;;2.00;;
19024;SDS011;9645;51.448;6.260;2023-03-14T06:47:41;3.00;;;1.88;;
19024;SDS011;9645;51.448;6.260;2023-03-14T06:50:09;3.20;;;1.98;;
19024;SDS011;9645;51.448;6.260;2023-03-14T06:52:36;5.22;;;2.00;;
19024;SDS011;9645;51.448;6.260;2023-03-14T06:55:06;3.38;;;1.73;;
19024;SDS011;9645;51.448;6.260;2023-03-14T06:57:33;6.43;;;1.67;;
19024;SDS011;9645;51.448;6.260;2023-03-14T07:00:02;2.65;;;2.03;;
19024;SDS011;9645;51.448;6.260;2023-03-14T07:02:30;1.90;;;1.75;;
19024;SDS011;9645;51.448;6.260;2023-03-14T07:04:57;2.10;;;1.70;;
19024;SDS011;9645;51.448;6.260;2023-03-14T07:07:24;2.10;;;1.75;;
19024;SDS011;9645;51.448;6.260;2023-03-14T07:09:51;3.83;;;2.30;;
19024;SDS011;9645;51.448;6.260;2023-03-14T07:12:18;3.20;;;1.70;;
19024;SDS011;9645;51.448;6.260;2023-03-14T07:14:45;4.38;;;2.08;;
19024;SDS011;9645;51.448;6.260;2023-03-14T07:17:13;1.90;;;1.65;;
19024;SDS011;9645;51.448;6.260;2023-03-14T07:19:40;2.58;;;1.63;;
19024;SDS011;9645;51.448;6.260;2023-03-14T07:22:07;3.58;;;1.40;;
19024;SDS011;9645;51.448;6.260;2023-03-14T07:24:34;2.20;;;1.70;;
19024;SDS011;9645;51.448;6.260;2023-03-14T07:27:01;1.90;;;1.80;;
19024;SDS011;9645;51.448;6.260;2023-03-14T07:29:28;2.20;;;1.67;;
19024;SDS011;9645;51.448;6.260;2023-03-14T07:31:55;1.65;;;1.50;;
19024;SDS011;9645;51.448;6.260;2023-03-14T07:34:24;3.78;;;1.92;;
19024;SDS011;9645;51.448;6.260;2023-03-14T07:36:50;3.50;;;1.90;;
19024;SDS011;9645;51.448;6.260;2023-03-14T07:39:17;4.60;;;1.80;;
19024;SDS011;9645;51.448;6.260;2023-03-14T07:41:44;2.90;;;1.80;;
19024;SDS011;9645;51.448;6.260;2023-03-14T07:44:11;3.80;;;1.50;;
19024;SDS011;9645;51.448;6.260;2023-03-14T07:46:38;4.93;;;1.90;;
19024;SDS011;9645;51.448;6.260;2023-03-14T07:49:05;4.78;;;1.70;;
19024;SDS011;9645;51.448;6.260;2023-03-14T07:51:34;2.67;;;1.65;;
19024;SDS011;9645;51.448;6.260;2023-03-14T07:54:01;2.35;;;1.80;;
19024;SDS011;9645;51.448;6.260;2023-03-14T07:56:28;3.28;;;2.00;;
19024;SDS011;9645;51.448;6.260;2023-03-14T07:58:56;2.63;;;1.58;;
19024;SDS011;9645;51.448;6.260;2023-03-14T08:01:23;2.10;;;1.75;;
19024;SDS011;9645;51.448;6.260;2023-03-14T08:03:50;3.13;;;1.90;;
19024;SDS011;9645;51.448;6.260;2023-03-14T08:06:17;3.08;;;1.52;;
19024;SDS011;9645;51.448;6.260;2023-03-14T08:08:45;3.75;;;1.60;;
19024;SDS011;9645;51.448;6.260;2023-03-14T08:11:12;1.60;;;1.50;;
19024;SDS011;9645;51.448;6.260;2023-03-14T08:13:39;2.15;;;1.58;;
19024;SDS011;9645;51.448;6.260;2023-03-14T08:16:07;3.72;;;1.50;;
19024;SDS011;9645;51.448;6.260;2023-03-14T08:18:34;1.98;;;1.17;;
19024;SDS011;9645;51.448;6.260;2023-03-14T08:21:01;1.38;;;1.25;;
19024;SDS011;9645;51.448;6.260;2023-03-14T08:23:28;1.55;;;1.40;;
19024;SDS011;9645;51.448;6.260;2023-03-14T08:25:57;1.50;;;1.20;;
19024;SDS011;9645;51.448;6.260;2023-03-14T08:28:24;1.67;;;1.40;;
19024;SDS011;9645;51.448;6.260;2023-03-14T08:30:55;1.88;;;1.40;;
19024;SDS011;9645;51.448;6.260;2023-03-14T08:33:23;2.47;;;1.60;;
19024;SDS011;9645;51.448;6.260;2023-03-14T08:35:51;1.35;;;0.63;;
19024;SDS011;9645;51.448;6.260;2023-03-14T08:38:18;1.25;;;0.70;;
19024;SDS011;9645;51.448;6.260;2023-03-14T08:40:46;1.50;;;0.60;;
19024;SDS011;9645;51.448;6.260;2023-03-14T08:43:14;1.02;;;0.70;;
19024;SDS011;9645;51.448;6.260;2023-03-14T08:45:41;1.00;;;0.82;;
19024;SDS011;9645;51.448;6.260;2023-03-14T08:48:08;1.15;;;0.70;;
19024;SDS011;9645;51.448;6.260;2023-03-14T08:50:35;1.05;;;0.80;;
19024;SDS011;9645;51.448;6.260;2023-03-14T08:53:02;0.73;;;0.73;;
19024;SDS011;9645;51.448;6.260;2023-03-14T08:55:29;3.80;;;1.30;;
19024;SDS011;9645;51.448;6.260;2023-03-14T08:57:57;0.73;;;0.70;;
19024;SDS011;9645;51.448;6.260;2023-03-14T09:00:25;0.85;;;0.82;;
19024;SDS011;9645;51.448;6.260;2023-03-14T09:02:52;1.35;;;1.13;;
19024;SDS011;9645;51.448;6.260;2023-03-14T09:05:19;1.15;;;1.05;;
19024;SDS011;9645;51.448;6.260;2023-03-14T09:07:46;2.58;;;1.60;;
19024;SDS011;9645;51.448;6.260;2023-03-14T09:10:13;2.28;;;1.30;;
19024;SDS011;9645;51.448;6.260;2023-03-14T09:12:40;2.97;;;1.33;;
19024;SDS011;9645;51.448;6.260;2023-03-14T09:15:07;3.88;;;1.50;;
19024;SDS011;9645;51.448;6.260;2023-03-14T09:17:36;1.88;;;1.77;;
19024;SDS011;9645;51.448;6.260;2023-03-14T09:20:03;3.20;;;1.63;;
19024;SDS011;9645;51.448;6.260;2023-03-14T09:22:33;2.08;;;1.88;;
19024;SDS011;9645;51.448;6.260;2023-03-14T09:25:01;4.78;;;1.75;;
19024;SDS011;9645;51.448;6.260;2023-03-14T09:27:29;2.88;;;1.92;;
19024;SDS011;9645;51.448;6.260;2023-03-14T09:29:55;2.30;;;2.10;;
19024;SDS011;9645;51.448;6.260;2023-03-14T09:32:22;4.70;;;1.80;;
19024;SDS011;9645;51.448;6.260;2023-03-14T09:34:51;2.17;;;1.98;;
19024;SDS011;9645;51.448;6.260;2023-03-14T09:37:18;3.67;;;2.38;;
19024;SDS011;9645;51.448;6.260;2023-03-14T09:39:46;2.65;;;1.70;;
19024;SDS011;9645;51.448;6.260;2023-03-14T09:42:13;1.67;;;1.58;;
19024;SDS011;9645;51.448;6.260;2023-03-14T09:44:44;2.88;;;1.77;;
19024;SDS011;9645;51.448;6.260;2023-03-14T09:47:19;3.67;;;1.35;;
19024;SDS011;9645;51.448;6.260;2023-03-14T09:49:46;2.60;;;1.23;;
19024;SDS011;9645;51.448;6.260;2023-03-14T09:52:15;2.75;;;1.45;;
19024;SDS011;9645;51.448;6.260;2023-03-14T09:54:46;4.25;;;1.67;;
19024;SDS011;9645;51.448;6.260;2023-03-14T09:57:16;3.30;;;1.33;;
19024;SDS011;9645;51.448;6.260;2023-03-14T09:59:45;6.72;;;1.73;;
19024;SDS011;9645;51.448;6.260;2023-03-14T10:02:15;7.32;;;4.25;;
19024;SDS011;9645;51.448;6.260;2023-03-14T10:04:45;1.67;;;1.23;;
19024;SDS011;9645;51.448;6.260;2023-03-14T10:07:15;0.90;;;0.90;;
19024;SDS011;9645;51.448;6.260;2023-03-14T10:09:47;4.00;;;0.80;;
19024;SDS011;9645;51.448;6.260;2023-03-14T10:12:16;3.53;;;0.50;;
19024;SDS011;9645;51.448;6.260;2023-03-14T10:14:47;1.50;;;0.60;;
19024;SDS011;9645;51.448;6.260;2023-03-14T10:17:17;4.03;;;1.00;;
19024;SDS011;9645;51.448;6.260;2023-03-14T10:19:52;1.95;;;0.88;;
19024;SDS011;9645;51.448;6.260;2023-03-14T10:22:22;0.80;;;0.80;;
19024;SDS011;9645;51.448;6.260;2023-03-14T10:24:52;0.55;;;0.55;;
19024;SDS011;9645;51.448;6.260;2023-03-14T10:27:27;0.70;;;0.70;;
19024;SDS011;9645;51.448;6.260;2023-03-14T10:29:55;0.70;;;0.60;;
19024;SDS011;9645;51.448;6.260;2023-03-14T10:32:28;1.40;;;0.80;;
19024;SDS011;9645;51.448;6.260;2023-03-14T10:35:11;3.20;;;1.33;;
19024;SDS011;9645;51.448;6.260;2023-03-14T10:37:55;4.30;;;0.90;;
19024;SDS011;9645;51.448;6.260;2023-03-14T10:40:28;0.90;;;0.80;;
19024;SDS011;9645;51.448;6.260;2023-03-14T10:42:57;0.88;;;0.88;;
19024;SDS011;9645;51.448;6.260;2023-03-14T10:45:28;1.80;;;0.90;;
19024;SDS011;9645;51.448;6.260;2023-03-14T10:47:58;3.38;;;0.85;;
19024;SDS011;9645;51.448;6.260;2023-03-14T10:50:32;3.40;;;0.80;;
19024;SDS011;9645;51.448;6.260;2023-03-14T10:53:02;1.30;;;0.60;;
19024;SDS011;9645;51.448;6.260;2023-03-14T10:55:39;2.25;;;0.68;;
19024;SDS011;9645;51.448;6.260;2023-03-14T10:58:18;1.35;;;0.50;;
19024;SDS011;9645;51.448;6.260;2023-03-14T11:00:47;1.90;;;0.60;;
19024;SDS011;9645;51.448;6.260;2023-03-14T11:03:27;1.67;;;1.13;;
19024;SDS011;9645;51.448;6.260;2023-03-14T11:05:59;12.98;;;1.00;;
19024;SDS011;9645;51.448;6.260;2023-03-14T11:08:35;2.05;;;0.63;;
19024;SDS011;9645;51.448;6.260;2023-03-14T11:11:08;4.95;;;0.70;;
19024;SDS011;9645;51.448;6.260;2023-03-14T11:13:41;0.70;;;0.60;;
19024;SDS011;9645;51.448;6.260;2023-03-14T11:16:19;3.70;;;0.70;;
19024;SDS011;9645;51.448;6.260;2023-03-14T11:21:59;5.03;;;0.70;;
19024;SDS011;9645;51.448;6.260;2023-03-14T11:24:41;2.90;;;0.75;;
19024;SDS011;9645;51.448;6.260;2023-03-14T11:27:17;5.72;;;0.95;;
19024;SDS011;9645;51.448;6.260;2023-03-14T11:29:51;5.50;;;1.02;;
19024;SDS011;9645;51.448;6.260;2023-03-14T11:32:23;4.20;;;1.02;;
19024;SDS011;9645;51.448;6.260;2023-03-14T11:35:02;3.90;;;0.77;;
19024;SDS011;9645;51.448;6.260;2023-03-14T11:37:32;8.70;;;1.13;;
19024;SDS011;9645;51.448;6.260;2023-03-14T11:40:05;7.45;;;0.80;;
19024;SDS011;9645;51.448;6.260;2023-03-14T11:42:39;9.10;;;1.52;;
19024;SDS011;9645;51.448;6.260;2023-03-14T11:45:12;6.53;;;1.33;;
19024;SDS011;9645;51.448;6.260;2023-03-14T11:47:43;3.58;;;0.88;;
19024;SDS011;9645;51.448;6.260;2023-03-14T11:50:15;11.27;;;1.55;;
19024;SDS011;9645;51.448;6.260;2023-03-14T11:52:46;4.20;;;0.98;;
19024;SDS011;9645;51.448;6.260;2023-03-14T11:55:18;2.58;;;1.02;;
19024;SDS011;9645;51.448;6.260;2023-03-14T11:57:51;5.68;;;1.10;;
19024;SDS011;9645;51.448;6.260;2023-03-14T12:00:20;10.30;;;1.20;;
19024;SDS011;9645;51.448;6.260;2023-03-14T12:02:50;6.15;;;1.17;;
19024;SDS011;9645;51.448;6.260;2023-03-14T12:08:25;12.80;;;1.80;;
19024;SDS011;9645;51.448;6.260;2023-03-14T12:11:06;4.78;;;1.50;;
19024;SDS011;9645;51.448;6.260;2023-03-14T12:13:39;8.13;;;1.45;;
19024;SDS011;9645;51.448;6.260;2023-03-14T12:16:07;10.18;;;1.60;;
19024;SDS011;9645;51.448;6.260;2023-03-14T12:18:46;9.82;;;1.48;;
19024;SDS011;9645;51.448;6.260;2023-03-14T12:21:13;4.32;;;1.10;;
19024;SDS011;9645;51.448;6.260;2023-03-14T12:23:41;8.02;;;1.52;;
19024;SDS011;9645;51.448;6.260;2023-03-14T12:26:15;7.25;;;2.05;;
19024;SDS011;9645;51.448;6.260;2023-03-14T12:28:48;9.07;;;2.50;;
19024;SDS011;9645;51.448;6.260;2023-03-14T12:39:49;14.82;;;2.63;;
19024;SDS011;9645;51.448;6.260;2023-03-14T12:42:35;13.68;;;1.90;;
19024;SDS011;9645;51.448;6.260;2023-03-14T12:45:13;23.63;;;2.60;;
19024;SDS011;9645;51.448;6.260;2023-03-14T12:47:55;11.13;;;2.30;;
19024;SDS011;9645;51.448;6.260;2023-03-14T12:50:34;8.52;;;1.40;;
19024;SDS011;9645;51.448;6.260;2023-03-14T12:56:17;10.30;;;1.67;;
19024;SDS011;9645;51.448;6.260;2023-03-14T12:58:54;16.73;;;1.88;;
19024;SDS011;9645;51.448;6.260;2023-03-14T13:01:31;14.90;;;1.88;;
19024;SDS011;9645;51.448;6.260;2023-03-14T13:04:02;19.42;;;2.13;;
19024;SDS011;9645;51.448;6.260;2023-03-14T13:06:46;10.77;;;1.73;;
19024;SDS011;9645;51.448;6.260;2023-03-14T13:12:27;16.42;;;1.98;;
19024;SDS011;9645;51.448;6.260;2023-03-14T13:15:01;11.70;;;1.80;;
19024;SDS011;9645;51.448;6.260;2023-03-14T13:17:40;15.05;;;2.40;;
19024;SDS011;9645;51.448;6.260;2023-03-14T13:20:10;18.23;;;2.28;;
19024;SDS011;9645;51.448;6.260;2023-03-14T13:22:46;6.50;;;2.00;;
19024;SDS011;9645;51.448;6.260;2023-03-14T13:25:14;20.17;;;2.53;;
19024;SDS011;9645;51.448;6.260;2023-03-14T13:27:43;14.70;;;2.45;;
19024;SDS011;9645;51.448;6.260;2023-03-14T13:30:16;8.95;;;1.90;;
19024;SDS011;9645;51.448;6.260;2023-03-14T13:32:46;11.27;;;2.10;;
19024;SDS011;9645;51.448;6.260;2023-03-14T13:35:15;6.78;;;1.45;;
19024;SDS011;9645;51.448;6.260;2023-03-14T13:37:46;11.68;;;1.90;;
19024;SDS011;9645;51.448;6.260;2023-03-14T13:40:20;7.88;;;1.50;;
19024;SDS011;9645;51.448;6.260;2023-03-14T13:42:59;18.20;;;1.77;;
19024;SDS011;9645;51.448;6.260;2023-03-14T13:45:30;13.32;;;1.65;;
19024;SDS011;9645;51.448;6.260;2023-03-14T13:47:57;11.63;;;1.65;;
19024;SDS011;9645;51.448;6.260;2023-03-14T13:50:24;7.13;;;1.88;;
19024;SDS011;9645;51.448;6.260;2023-03-14T13:52:54;7.97;;;1.48;;
19024;SDS011;9645;51.448;6.260;2023-03-14T13:55:23;11.38;;;1.67;;
19024;SDS011;9645;51.448;6.260;2023-03-14T13:57:51;17.13;;;1.55;;
19024;SDS011;9645;51.448;6.260;2023-03-14T14:00:20;4.63;;;1.42;;
19024;SDS011;9645;51.448;6.260;2023-03-14T14:02:54;11.48;;;1.45;;
19024;SDS011;9645;51.448;6.260;2023-03-14T14:05:23;7.47;;;1.20;;
19024;SDS011;9645;51.448;6.260;2023-03-14T14:07:53;8.77;;;1.60;;
19024;SDS011;9645;51.448;6.260;2023-03-14T14:10:20;14.70;;;1.85;;
19024;SDS011;9645;51.448;6.260;2023-03-14T14:12:48;11.43;;;1.40;;
19024;SDS011;9645;51.448;6.260;2023-03-14T14:15:19;12.10;;;2.08;;
19024;SDS011;9645;51.448;6.260;2023-03-14T14:17:49;1.80;;;0.80;;
19024;SDS011;9645;51.448;6.260;2023-03-14T14:20:22;6.40;;;1.40;;
19024;SDS011;9645;51.448;6.260;2023-03-14T14:22:56;5.55;;;1.25;;
19024;SDS011;9645;51.448;6.260;2023-03-14T14:25:25;6.05;;;0.90;;
19024;SDS011;9645;51.448;6.260;2023-03-14T14:27:52;3.70;;;0.90;;
19024;SDS011;9645;51.448;6.260;2023-03-14T14:30:25;9.95;;;1.40;;
19024;SDS011;9645;51.448;6.260;2023-03-14T14:33:06;7.70;;;1.42;;
19024;SDS011;9645;51.448;6.260;2023-03-14T14:35:39;5.68;;;1.35;;
19024;SDS011;9645;51.448;6.260;2023-03-14T14:38:10;8.95;;;1.50;;
19024;SDS011;9645;51.448;6.260;2023-03-14T14:40:45;7.93;;;1.40;;
19024;SDS011;9645;51.448;6.260;2023-03-14T14:43:15;5.60;;;1.42;;
19024;SDS011;9645;51.448;6.260;2023-03-14T14:45:44;2.85;;;1.33;;
19024;SDS011;9645;51.448;6.260;2023-03-14T14:48:14;10.13;;;1.48;;
19024;SDS011;9645;51.448;6.260;2023-03-14T14:50:50;8.40;;;1.45;;
19024;SDS011;9645;51.448;6.260;2023-03-14T14:53:27;3.20;;;1.15;;
19024;SDS011;9645;51.448;6.260;2023-03-14T14:55:57;9.15;;;1.80;;
19024;SDS011;9645;51.448;6.260;2023-03-14T14:58:26;2.58;;;1.13;;
19024;SDS011;9645;51.448;6.260;2023-03-14T15:00:56;6.97;;;1.30;;
19024;SDS011;9645;51.448;6.260;2023-03-14T15:03:29;6.75;;;1.35;;
19024;SDS011;9645;51.448;6.260;2023-03-14T15:06:00;3.38;;;1.00;;
19024;SDS011;9645;51.448;6.260;2023-03-14T15:08:27;9.30;;;1.42;;
19024;SDS011;9645;51.448;6.260;2023-03-14T15:10:55;7.72;;;1.40;;
19024;SDS011;9645;51.448;6.260;2023-03-14T15:13:23;3.03;;;1.00;;
19024;SDS011;9645;51.448;6.260;2023-03-14T15:15:50;7.10;;;1.02;;
19024;SDS011;9645;51.448;6.260;2023-03-14T15:18:21;4.35;;;1.20;;
19024;SDS011;9645;51.448;6.260;2023-03-14T15:20:49;5.65;;;1.35;;
19024;SDS011;9645;51.448;6.260;2023-03-14T15:23:18;3.60;;;1.20;;
19024;SDS011;9645;51.448;6.260;2023-03-14T15:25:46;12.52;;;1.10;;
19024;SDS011;9645;51.448;6.260;2023-03-14T15:28:15;7.13;;;1.50;;
19024;SDS011;9645;51.448;6.260;2023-03-14T15:30:45;4.85;;;1.30;;
19024;SDS011;9645;51.448;6.260;2023-03-14T15:33:13;4.35;;;0.90;;